createdAt,value
2022-11-06T00:04:33.586Z,72.10
2022-11-06T00:09:37.408Z,71.80
2022-11-06T00:14:41.543Z,71.60
2022-11-06T00:19:45.573Z,71.50
2022-11-06T00:24:52.069Z,71.50
2022-11-06T00:29:55.787Z,71.60
2022-11-06T00:34:59.412Z,71.20
2022-11-06T00:40:03.754Z,71.20
2022-11-06T00:45:08.297Z,71.20
2022-11-06T00:50:11.923Z,71.70
2022-11-06T00:55:15.670Z,71.20
2022-11-06T01:00:20.804Z,71.10
2022-11-06T01:05:24.528Z,71.10
2022-11-06T01:10:31.936Z,71.00
2022-11-06T01:15:36.706Z,71.00
2022-11-06T01:20:40.344Z,70.50
2022-11-06T01:25:44.444Z,70.20
2022-11-06T01:30:49.092Z,69.40
2022-11-06T01:35:53.024Z,69.00
2022-11-06T01:40:57.365Z,68.80
2022-11-06T01:46:01.392Z,69.00
2022-11-06T01:51:07.104Z,68.60
2022-11-06T01:56:13.345Z,68.20
2022-11-06T02:01:17.789Z,68.50
2022-11-06T02:06:22.032Z,67.90
2022-11-06T02:11:28.821Z,67.70
2022-11-06T02:16:52.912Z,67.90
2022-11-06T02:22:24.572Z,67.40
2022-11-06T02:27:33.210Z,67.00
2022-11-06T02:32:49.215Z,67.00
2022-11-06T02:37:58.165Z,66.50
2022-11-06T02:43:06.727Z,66.30
2022-11-06T02:48:13.396Z,66.20
2022-11-06T02:53:20.900Z,66.10
2022-11-06T02:58:58.612Z,66.00
2022-11-06T03:04:06.029Z,66.10
2022-11-06T03:09:15.699Z,66.00
2022-11-06T03:14:29.635Z,66.30
2022-11-06T03:19:42.922Z,66.20
2022-11-06T03:24:46.600Z,66.00
2022-11-06T03:30:01.272Z,66.20
2022-11-06T03:35:09.505Z,66.10
2022-11-06T03:40:17.491Z,66.20
2022-11-06T03:45:24.900Z,66.40
2022-11-06T03:50:33.470Z,66.50
2022-11-06T03:55:43.846Z,66.70
2022-11-06T04:00:48.390Z,66.80
2022-11-06T04:05:56.639Z,67.10
2022-11-06T04:11:22.456Z,67.10
2022-11-06T04:16:37.945Z,67.30
2022-11-06T04:21:50.891Z,67.30
2022-11-06T04:27:12.000Z,67.50
2022-11-06T04:32:24.729Z,67.50
2022-11-06T04:38:02.942Z,67.60
2022-11-06T04:43:15.061Z,67.60
2022-11-06T04:48:20.125Z,67.60
2022-11-06T04:53:24.630Z,67.70
2022-11-06T04:58:31.337Z,68.10
2022-11-06T05:03:37.860Z,67.80
2022-11-06T05:08:43.311Z,68.20
2022-11-06T05:13:47.033Z,68.10
2022-11-06T05:18:50.859Z,68.00
2022-11-06T05:23:54.486Z,68.10
2022-11-06T05:28:58.314Z,68.20
2022-11-06T05:34:02.343Z,68.70
2022-11-06T05:39:06.069Z,68.20
2022-11-06T05:44:10.103Z,68.30
2022-11-06T05:49:14.850Z,68.30
2022-11-06T05:54:18.677Z,68.60
2022-11-06T05:59:22.408Z,68.20
2022-11-06T06:04:26.130Z,68.30
2022-11-06T06:09:33.062Z,68.00
2022-11-06T06:14:36.752Z,67.40
2022-11-06T06:19:41.034Z,66.70
2022-11-06T06:24:45.088Z,66.30
2022-11-06T06:29:48.954Z,66.00
2022-11-06T06:34:52.577Z,66.30
2022-11-06T06:39:56.299Z,66.10
2022-11-06T06:44:59.923Z,65.40
2022-11-06T06:50:04.678Z,65.50
2022-11-06T06:55:08.808Z,65.80
2022-11-06T07:00:13.045Z,64.80
2022-11-06T07:05:16.667Z,64.90
2022-11-06T07:10:23.063Z,65.30
2022-11-06T07:15:26.884Z,64.60
2022-11-06T07:20:31.427Z,64.40
2022-11-06T07:25:37.201Z,64.30
2022-11-06T07:30:40.689Z,64.30
2022-11-06T07:35:47.238Z,64.40
2022-11-06T07:40:52.263Z,64.20
2022-11-06T07:46:06.027Z,64.40
2022-11-06T07:51:11.591Z,64.30
2022-11-06T07:56:18.187Z,64.60
2022-11-06T08:01:24.455Z,64.80
2022-11-06T08:06:55.606Z,64.90
2022-11-06T08:11:59.554Z,65.90
2022-11-06T08:17:12.583Z,65.70
2022-11-06T08:22:27.570Z,66.70
2022-11-06T08:27:31.492Z,68.30
2022-11-06T08:32:38.388Z,68.60
2022-11-06T08:37:47.536Z,68.60
2022-11-06T08:42:51.269Z,68.50
2022-11-06T08:47:55.097Z,68.70
2022-11-06T08:59:01.280Z,68.30
2022-11-06T09:04:14.604Z,68.00
2022-11-06T09:09:18.355Z,68.00
2022-11-06T09:14:22.697Z,67.90
2022-11-06T09:19:31.757Z,67.60
2022-11-06T09:25:02.475Z,66.70
2022-11-06T09:30:16.662Z,66.70
2022-11-06T09:35:27.912Z,66.60
2022-11-06T09:40:43.742Z,66.40
2022-11-06T09:45:56.361Z,66.40
2022-11-06T09:51:50.241Z,66.40
2022-11-06T09:57:04.845Z,66.10
2022-11-06T10:02:35.301Z,66.10
2022-11-06T10:07:53.880Z,66.30
2022-11-06T10:13:17.859Z,66.10
2022-11-06T10:18:41.683Z,65.60
2022-11-06T10:24:09.691Z,65.50
2022-11-06T10:29:48.416Z,65.30
2022-11-06T10:35:25.277Z,64.70
2022-11-06T10:40:35.929Z,64.90
2022-11-06T10:45:49.090Z,64.80
2022-11-06T10:51:26.103Z,64.60
2022-11-06T10:57:00.611Z,64.50
2022-11-06T11:02:34.066Z,64.50
2022-11-06T11:07:41.120Z,64.40
2022-11-06T11:12:46.157Z,64.20
2022-11-06T11:18:48.738Z,64.10
2022-11-06T11:24:04.233Z,64.10
2022-11-06T11:29:37.702Z,63.90
2022-11-06T11:34:57.080Z,64.20
2022-11-06T11:40:36.986Z,63.70
2022-11-06T11:45:45.298Z,63.60
2022-11-06T11:50:59.880Z,63.60
2022-11-06T11:56:42.513Z,63.50
2022-11-06T12:01:46.035Z,63.90
2022-11-06T12:07:22.367Z,63.40
2022-11-06T12:12:34.151Z,63.40
2022-11-06T12:17:43.706Z,63.30
2022-11-06T12:23:11.815Z,63.60
2022-11-06T12:28:19.198Z,63.10
2022-11-06T12:34:04.567Z,63.00
2022-11-06T12:39:11.906Z,63.00
2022-11-06T12:44:20.868Z,63.00
2022-11-06T12:50:12.372Z,63.00
2022-11-06T12:55:40.566Z,63.10
2022-11-06T13:01:26.301Z,63.00
2022-11-06T13:07:05.877Z,62.90
2022-11-06T13:12:50.691Z,62.90
2022-11-06T13:18:35.670Z,62.90
2022-11-06T13:24:00.622Z,62.90
2022-11-06T13:29:12.171Z,62.90
2022-11-06T13:34:22.459Z,62.90
2022-11-06T13:39:38.879Z,62.80
2022-11-06T13:44:46.308Z,62.70
2022-11-06T13:50:27.987Z,62.70
2022-11-06T13:55:53.607Z,62.60
2022-11-06T14:01:25.853Z,62.50
2022-11-06T14:06:33.545Z,62.60
2022-11-06T14:11:45.641Z,63.00
2022-11-06T14:17:14.551Z,62.70
2022-11-06T14:22:38.635Z,62.80
2022-11-06T14:27:50.238Z,62.90
2022-11-06T14:32:57.761Z,62.90
2022-11-06T14:38:53.050Z,62.80
2022-11-06T14:43:58.473Z,62.90
2022-11-06T14:49:26.493Z,62.80
2022-11-06T14:54:40.143Z,63.40
2022-11-06T14:59:46.431Z,62.70
2022-11-06T15:04:59.349Z,62.80
2022-11-06T15:10:06.127Z,62.80
2022-11-06T15:15:19.195Z,62.70
2022-11-06T15:20:32.194Z,62.70
2022-11-06T15:25:41.442Z,62.70
2022-11-06T15:30:52.174Z,62.70
2022-11-06T15:35:59.073Z,63.00
2022-11-06T15:41:03.626Z,62.60
2022-11-06T15:46:25.762Z,62.70
2022-11-06T15:51:29.796Z,63.00
2022-11-06T15:56:35.903Z,62.60
2022-11-06T16:01:40.412Z,62.70
2022-11-06T16:06:45.267Z,62.60
2022-11-06T16:11:51.833Z,62.70
2022-11-06T16:16:57.550Z,62.60
2022-11-06T16:22:07.771Z,62.50
2022-11-06T16:27:12.659Z,62.00
2022-11-06T16:32:22.318Z,62.30
2022-11-06T16:37:29.878Z,62.30
2022-11-06T16:43:03.922Z,62.30
2022-11-06T16:48:09.818Z,61.60
2022-11-06T16:53:31.053Z,61.90
2022-11-06T16:59:18.870Z,61.80
2022-11-06T17:04:34.389Z,61.70
2022-11-06T17:15:19.847Z,61.40
2022-11-06T17:20:31.303Z,61.80
2022-11-06T17:25:38.802Z,61.40
2022-11-06T17:30:48.933Z,61.20
2022-11-06T17:41:52.647Z,61.00
2022-11-06T17:46:56.541Z,61.10
2022-11-06T17:52:25.455Z,60.80
2022-11-06T17:57:29.381Z,60.80
2022-11-06T18:03:00.571Z,60.70
2022-11-06T18:08:17.064Z,60.70
2022-11-06T18:13:24.435Z,60.50
2022-11-06T18:18:29.414Z,60.20
2022-11-06T18:23:49.124Z,59.80
2022-11-06T18:29:18.917Z,58.80
2022-11-06T18:34:52.541Z,58.10
2022-11-06T18:40:10.670Z,57.70
2022-11-06T18:45:14.499Z,57.30
2022-11-06T18:50:19.449Z,57.20
2022-11-06T18:55:36.142Z,57.00
2022-11-06T19:00:49.633Z,56.80
2022-11-06T19:05:58.772Z,56.60
2022-11-06T19:11:08.921Z,56.50
2022-11-06T19:16:25.062Z,56.80
2022-11-06T19:22:00.398Z,57.00
2022-11-06T19:27:09.135Z,57.70
2022-11-06T19:32:27.671Z,57.30
2022-11-06T19:37:37.772Z,57.70
2022-11-06T19:42:55.529Z,58.20
2022-11-06T19:48:13.652Z,58.60
2022-11-06T19:53:27.692Z,58.70
2022-11-06T19:58:41.465Z,58.70
2022-11-06T20:04:10.865Z,58.60
2022-11-06T20:09:19.348Z,58.70
2022-11-06T20:14:29.508Z,58.20
2022-11-06T20:19:43.881Z,57.70
2022-11-06T20:24:55.020Z,57.30
2022-11-06T20:30:07.538Z,57.00
2022-11-06T20:35:25.763Z,57.10
2022-11-06T20:40:34.712Z,56.60
2022-11-06T20:45:44.483Z,57.10
2022-11-06T20:51:59.941Z,56.50
2022-11-06T20:57:05.593Z,56.60
2022-11-06T21:02:14.083Z,58.20
2022-11-06T21:07:24.905Z,58.70
2022-11-06T21:12:30.572Z,59.80
2022-11-06T21:17:35.632Z,60.30
2022-11-06T21:22:41.410Z,60.30
2022-11-06T21:27:45.026Z,60.60
2022-11-06T21:32:54.480Z,61.30
2022-11-06T21:38:08.514Z,61.10
2022-11-06T21:43:12.346Z,61.30
2022-11-06T21:48:45.928Z,61.50
2022-11-06T21:54:11.708Z,61.80
2022-11-06T21:59:21.897Z,61.90
2022-11-06T22:04:45.875Z,62.00
2022-11-06T22:09:52.465Z,62.10
2022-11-06T22:14:59.152Z,62.20
2022-11-06T22:20:03.917Z,62.20
2022-11-06T22:25:17.502Z,62.20
2022-11-06T22:30:26.808Z,62.20
2022-11-06T22:35:33.198Z,62.20
2022-11-06T22:40:37.029Z,62.20
2022-11-06T22:45:41.361Z,62.20
2022-11-06T22:50:45.694Z,62.30
2022-11-06T22:55:55.563Z,62.80
2022-11-06T23:01:04.210Z,63.00
2022-11-06T23:06:17.887Z,62.50
2022-11-06T23:11:23.430Z,62.60
2022-11-06T23:16:46.687Z,62.80
2022-11-06T23:21:50.831Z,62.80
2022-11-06T23:26:55.777Z,62.80
2022-11-06T23:32:01.872Z,62.80
2022-11-06T23:37:06.611Z,62.80
2022-11-06T23:42:25.224Z,63.20
2022-11-06T23:47:29.206Z,62.80
2022-11-06T23:52:46.409Z,63.00
2022-11-06T23:57:52.207Z,62.90
